Time;durP1;ratioP1;P1;durP2;ratioP2;P2;SDS_P1;SDS_P2;PMS_P1;PMS_P2;Temp;Humidity;BMP_temperature;BMP_pressure;BME280_temperature;BME280_humidity;BME280_pressure;Samples;Min_cycle;Max_cycle;Signal;HPM_P1;HPM_P2
2021/07/21 00:00:12;;;;;;;18.67;12.50;;;16.00;79.90;;;;;;5096014;28;20028;-77
2021/07/21 00:02:39;;;;;;;16.92;11.50;;;16.00;80.00;;;;;;5094945;28;20020;-76
2021/07/21 00:05:09;;;;;;;18.20;11.88;;;16.00;80.20;;;;;;5095988;28;20028;-76
2021/07/21 00:07:35;;;;;;;15.68;11.73;;;16.00;80.30;;;;;;5077901;28;20380;-75
2021/07/21 00:10:04;;;;;;;20.48;12.63;;;16.00;80.40;;;;;;5094913;28;20115;-75
2021/07/21 00:15:15;;;;;;;18.48;13.07;;;15.80;80.50;;;;;;5096357;28;20130;-76
2021/07/21 00:17:43;;;;;;;19.05;13.18;;;15.70;80.70;;;;;;5094201;28;20048;-76
2021/07/21 00:20:10;;;;;;;17.83;12.43;;;15.70;81.00;;;;;;5077966;28;20036;-75
2021/07/21 00:22:44;;;;;;;16.25;12.38;;;15.60;81.20;;;;;;5094583;28;20051;-76
2021/07/21 00:25:13;;;;;;;16.48;12.95;;;15.70;81.30;;;;;;5077547;28;20059;-76
2021/07/21 00:27:40;;;;;;;16.67;12.82;;;15.70;81.10;;;;;;5095436;28;20465;-76
2021/07/21 00:30:08;;;;;;;21.70;13.00;;;15.80;80.90;;;;;;5095297;28;20024;-76
2021/07/21 00:32:34;;;;;;;16.25;12.52;;;15.80;80.80;;;;;;5094968;28;20032;-76
2021/07/21 00:35:00;;;;;;;16.27;12.27;;;15.80;80.60;;;;;;5094029;28;20101;-76
2021/07/21 00:37:25;;;;;;;17.13;11.95;;;15.80;80.50;;;;;;5094606;28;20078;-78
2021/07/21 00:39:51;;;;;;;16.40;11.88;;;15.80;80.60;;;;;;5094288;28;20062;-76
2021/07/21 00:42:17;;;;;;;18.85;12.35;;;15.70;80.70;;;;;;5094381;28;20032;-76
2021/07/21 00:44:44;;;;;;;16.95;11.80;;;15.60;81.50;;;;;;5077917;28;20024;-76
2021/07/21 00:47:10;;;;;;;19.13;12.55;;;15.50;81.40;;;;;;5095772;28;20109;-77
2021/07/21 00:49:35;;;;;;;14.57;11.73;;;15.50;81.40;;;;;;5095633;28;20032;-77
2021/07/21 00:52:04;;;;;;;16.48;12.40;;;15.50;81.40;;;;;;5095762;28;20115;-76
2021/07/21 00:54:33;;;;;;;20.30;12.57;;;15.50;81.60;;;;;;5094280;28;20483;-75
2021/07/21 00:57:00;;;;;;;18.00;12.77;;;15.40;82.10;;;;;;5094638;28;20028;-75
2021/07/21 00:59:27;;;;;;;15.80;11.65;;;15.30;82.30;;;;;;5094656;28;20020;-79
2021/07/21 01:01:53;;;;;;;17.13;12.50;;;15.20;82.50;;;;;;5094005;28;20028;-75
2021/07/21 01:04:19;;;;;;;17.52;11.48;;;15.10;82.80;;;;;;5077971;28;20035;-76
2021/07/21 01:06:45;;;;;;;20.08;13.25;;;15.10;83.20;;;;;;5094277;28;20416;-77
2021/07/21 01:09:11;;;;;;;21.67;12.50;;;15.20;83.40;;;;;;5076994;28;20090;-76
2021/07/21 01:12:00;;;;;;;17.67;11.75;;;15.20;83.50;;;;;;5095201;28;20040;-76
2021/07/21 01:14:45;;;;;;;18.75;12.50;;;15.10;83.60;;;;;;5095458;28;20056;-82
2021/07/21 01:17:18;;;;;;;20.33;12.32;;;15.10;83.50;;;;;;5095913;28;20024;-75
2021/07/21 01:19:47;;;;;;;;;;;15.20;83.30;;;;;;5093903;28;20052;-75
2021/07/21 01:22:17;;;;;;;21.63;12.20;;;15.30;83.30;;;;;;5095882;28;19904;-75
2021/07/21 01:25:07;;;;;;;17.77;11.93;;;15.30;83.20;;;;;;5096096;28;20039;-76
2021/07/21 01:27:42;;;;;;;17.20;11.23;;;15.40;83.00;;;;;;5094546;28;20093;-81
2021/07/21 01:30:20;;;;;;;17.92;10.98;;;15.40;83.30;;;;;;5094453;28;20464;-76
2021/07/21 01:32:50;;;;;;;15.77;10.85;;;15.40;83.00;;;;;;5101691;28;20028;-75
2021/07/21 01:35:20;;;;;;;17.85;11.43;;;15.40;83.00;;;;;;5100304;28;20028;-76
2021/07/21 01:38:05;;;;;;;15.57;11.32;;;15.40;83.00;;;;;;5101588;28;20044;-76
2021/07/21 01:40:40;;;;;;;17.00;10.73;;;15.40;83.10;;;;;;5102085;28;20028;-81
2021/07/21 01:43:07;;;;;;;17.08;11.30;;;15.20;83.30;;;;;;5095306;28;20032;-76
2021/07/21 01:45:35;;;;;;;18.77;10.98;;;15.10;83.70;;;;;;5094013;28;20143;-76
2021/07/21 01:48:02;;;;;;;18.45;11.18;;;15.10;84.00;;;;;;5093674;28;20066;-76
2021/07/21 01:50:30;;;;;;;17.02;11.18;;;15.10;83.90;;;;;;5093739;28;20058;-77
2021/07/21 01:52:58;;;;;;;14.93;11.70;;;15.10;84.00;;;;;;5093519;28;20039;-77
2021/07/21 01:55:25;;;;;;;22.15;12.10;;;15.10;84.10;;;;;;5093925;28;20032;-77
2021/07/21 01:57:51;;;;;;;15.88;12.38;;;15.10;84.20;;;;;;5093934;28;20024;-76
2021/07/21 02:00:18;;;;;;;19.58;12.13;;;15.00;84.20;;;;;;5093524;28;20111;-77
2021/07/21 02:02:48;;;;;;;16.85;11.30;;;15.00;84.30;;;;;;5076842;28;20165;-77
2021/07/21 02:05:16;;;;;;;17.98;12.55;;;15.00;84.50;;;;;;5093374;28;20043;-77
2021/07/21 02:07:44;;;;;;;18.30;12.07;;;14.90;84.70;;;;;;5076902;28;20107;-77
2021/07/21 02:10:13;;;;;;;17.85;11.40;;;14.90;84.80;;;;;;5076302;28;20050;-77
2021/07/21 02:12:40;;;;;;;18.73;12.43;;;14.90;84.90;;;;;;5093708;28;20020;-77
2021/07/21 02:15:06;;;;;;;15.68;11.98;;;15.00;84.80;;;;;;5076213;28;20032;-77
2021/07/21 02:17:32;;;;;;;19.55;12.70;;;14.90;84.60;;;;;;5094019;28;20055;-78
2021/07/21 02:19:59;;;;;;;20.27;12.23;;;15.00;84.70;;;;;;5059224;28;20058;-77
2021/07/21 02:22:25;;;;;;;20.38;12.13;;;15.00;84.60;;;;;;5076071;28;20032;-75
2021/07/21 02:24:51;;;;;;;20.05;12.02;;;14.90;84.60;;;;;;5076010;28;20031;-76
2021/07/21 02:27:17;;;;;;;15.77;11.75;;;14.80;84.90;;;;;;5092577;28;20070;-76
2021/07/21 02:29:43;;;;;;;18.17;12.32;;;14.70;85.00;;;;;;5093002;28;20020;-76
2021/07/21 02:32:26;;;;;;;18.92;12.55;;;14.50;85.40;;;;;;5093039;28;20033;-76
2021/07/21 02:34:52;;;;;;;18.48;12.43;;;14.40;85.70;;;;;;5093016;28;20361;-78
2021/07/21 02:37:19;;;;;;;17.30;12.43;;;14.30;86.00;;;;;;5093193;28;20044;-77
2021/07/21 02:39:48;;;;;;;16.95;11.98;;;14.20;86.30;;;;;;5094683;28;20028;-77
2021/07/21 02:42:14;;;;;;;15.70;12.30;;;14.20;86.50;;;;;;5092824;28;20028;-77
2021/07/21 02:44:45;;;;;;;21.48;12.93;;;14.40;86.50;;;;;;5076100;28;20028;-77
2021/07/21 02:47:11;;;;;;;26.65;13.02;;;14.50;86.10;;;;;;5093813;28;20059;-77
2021/07/21 02:49:38;;;;;;;19.73;12.55;;;14.40;86.00;;;;;;5092481;28;20028;-80
2021/07/21 02:52:26;;;;;;;23.13;13.18;;;14.30;86.20;;;;;;5093503;28;20098;-77
2021/07/21 02:55:05;;;;;;;21.52;12.77;;;14.10;86.90;;;;;;5094062;28;20027;-77
2021/07/21 02:57:48;;;;;;;16.27;12.63;;;14.00;86.90;;;;;;5096764;28;20024;-76
2021/07/21 03:00:19;;;;;;;16.52;11.55;;;13.90;87.10;;;;;;5096851;28;20107;-77
2021/07/21 03:02:49;;;;;;;17.80;12.20;;;13.90;87.40;;;;;;5097202;28;20016;-77
2021/07/21 03:05:18;;;;;;;18.85;13.10;;;13.90;87.70;;;;;;5096834;28;20028;-76
2021/07/21 03:07:50;;;;;;;18.30;11.80;;;13.90;87.70;;;;;;5096635;28;20032;-76
2021/07/21 03:10:17;;;;;;;17.13;11.93;;;13.90;87.80;;;;;;5096435;28;20056;-76
2021/07/21 03:12:51;;;;;;;16.85;11.75;;;13.90;87.60;;;;;;5097176;28;20364;-76
2021/07/21 03:15:17;;;;;;;19.55;11.55;;;13.90;87.70;;;;;;5096666;28;20035;-76
2021/07/21 03:17:45;;;;;;;16.08;11.82;;;14.00;87.80;;;;;;5079291;28;20024;-77
2021/07/21 03:20:12;;;;;;;17.83;12.23;;;14.00;87.50;;;;;;5097400;28;20059;-76
2021/07/21 03:22:40;;;;;;;17.08;11.73;;;13.90;87.40;;;;;;5080386;28;20032;-76
2021/07/21 03:25:09;;;;;;;16.73;11.07;;;13.90;87.60;;;;;;5096121;28;20024;-76
2021/07/21 03:27:41;;;;;;;14.85;10.63;;;13.90;87.90;;;;;;5097176;28;20063;-77
2021/07/21 03:30:08;;;;;;;;;;;14.00;87.90;;;;;;5079609;28;20024;-77
2021/07/21 03:32:35;;;;;;;15.57;10.70;;;14.00;87.70;;;;;;5078941;28;19908;-77
2021/07/21 03:35:02;;;;;;;16.48;10.43;;;14.10;87.40;;;;;;5095675;28;20032;-77
2021/07/21 03:37:28;;;;;;;15.02;10.68;;;14.20;87.00;;;;;;5096222;28;20470;-76
2021/07/21 03:39:56;;;;;;;15.50;10.77;;;14.20;86.80;;;;;;5079792;28;20024;-76
2021/07/21 03:42:28;;;;;;;14.52;10.75;;;14.20;86.80;;;;;;5095772;28;20035;-76
2021/07/21 03:44:59;;;;;;;16.83;10.82;;;14.20;87.00;;;;;;5095968;28;20031;-77
2021/07/21 03:47:25;;;;;;;16.80;11.55;;;14.20;87.00;;;;;;5097113;28;20405;-76
2021/07/21 03:49:52;;;;;;;16.13;11.48;;;14.10;87.00;;;;;;5078913;28;20024;-76
2021/07/21 03:52:21;;;;;;;15.57;11.48;;;14.10;87.20;;;;;;5095603;28;20032;-75
2021/07/21 03:54:47;;;;;;;17.48;12.18;;;14.10;87.20;;;;;;5095774;28;20119;-77
2021/07/21 03:57:16;;;;;;;17.98;11.13;;;14.20;87.10;;;;;;5095753;28;20028;-75
2021/07/21 03:59:42;;;;;;;19.67;11.95;;;14.10;87.20;;;;;;5095582;28;20028;-76
2021/07/21 04:02:09;;;;;;;16.55;11.80;;;14.10;87.50;;;;;;5078690;28;20051;-76
2021/07/21 04:04:40;;;;;;;17.05;11.63;;;14.20;87.50;;;;;;5095854;28;20039;-76
2021/07/21 04:07:08;;;;;;;18.88;11.75;;;14.30;87.30;;;;;;5095674;28;20026;-76
2021/07/21 04:09:34;;;;;;;15.23;11.48;;;14.30;87.00;;;;;;5078953;28;20070;-75
2021/07/21 04:12:01;;;;;;;16.23;11.43;;;14.40;86.90;;;;;;5095502;28;20111;-76
2021/07/21 04:14:28;;;;;;;18.30;12.00;;;14.40;86.70;;;;;;5095569;28;20032;-75
2021/07/21 04:16:55;;;;;;;18.50;11.30;;;14.40;86.60;;;;;;5095964;28;20051;-76
2021/07/21 04:19:23;;;;;;;21.90;12.05;;;14.40;86.60;;;;;;5095169;28;20048;-77
2021/07/21 04:21:51;;;;;;;18.80;12.25;;;14.40;86.60;;;;;;5096444;28;20024;-82
2021/07/21 04:24:20;;;;;;;17.30;11.55;;;14.50;86.30;;;;;;5096933;28;20497;-76
2021/07/21 04:26:47;;;;;;;15.63;11.50;;;14.50;86.10;;;;;;5096366;28;20078;-75
2021/07/21 04:29:15;;;;;;;16.00;11.48;;;14.60;86.10;;;;;;5062140;28;20035;-75
2021/07/21 04:31:43;;;;;;;17.52;12.35;;;14.80;85.90;;;;;;5096004;28;20028;-76
2021/07/21 04:34:10;;;;;;;20.00;11.70;;;15.20;85.20;;;;;;5095762;28;20020;-76
2021/07/21 04:36:38;;;;;;;17.30;10.40;;;16.00;83.40;;;;;;5096714;28;20058;-76
2021/07/21 04:39:05;;;;;;;17.95;10.45;;;16.90;80.70;;;;;;5099856;28;20024;-77
2021/07/21 04:41:32;;;;;;;13.75;10.63;;;17.70;77.80;;;;;;5116690;28;20005;-76
2021/07/21 04:43:59;;;;;;;18.13;10.07;;;18.40;75.30;;;;;;5102098;28;20016;-86
2021/07/21 04:46:25;;;;;;;16.60;10.55;;;18.80;73.70;;;;;;5119800;28;20040;-77
2021/07/21 04:48:55;;;;;;;16.55;10.20;;;19.10;72.60;;;;;;5101898;28;20009;-85
2021/07/21 04:51:23;;;;;;;14.38;9.68;;;19.60;71.30;;;;;;5100190;28;20020;-77
2021/07/21 04:53:54;;;;;;;17.08;9.32;;;20.00;69.70;;;;;;5118297;28;20054;-78
2021/07/21 04:56:20;;;;;;;11.20;8.30;;;20.30;68.50;;;;;;5117143;28;20032;-77
2021/07/21 04:58:47;;;;;;;12.90;9.38;;;20.70;67.30;;;;;;5117995;28;20008;-78
2021/07/21 05:01:14;;;;;;;13.43;8.50;;;21.00;66.30;;;;;;5096537;28;20020;-76
2021/07/21 05:03:40;;;;;;;11.85;8.15;;;21.40;65.40;;;;;;5100917;28;20031;-77
2021/07/21 05:06:05;;;;;;;14.10;8.40;;;21.80;64.10;;;;;;5100448;28;20036;-76
2021/07/21 05:08:31;;;;;;;12.73;8.52;;;22.20;63.10;;;;;;5065912;28;20020;-77
2021/07/21 05:11:00;;;;;;;10.95;8.05;;;22.70;61.90;;;;;;5101838;28;20107;-79
2021/07/21 05:13:25;;;;;;;12.73;7.75;;;22.90;61.00;;;;;;5083608;28;20492;-76
2021/07/21 05:15:51;;;;;;;11.20;7.82;;;23.10;60.40;;;;;;5099332;28;20140;-77
2021/07/21 05:18:17;;;;;;;11.43;8.02;;;23.30;59.50;;;;;;5080502;28;20024;-76
2021/07/21 05:20:46;;;;;;;11.90;7.65;;;23.30;58.40;;;;;;5081452;28;20084;-77
2021/07/21 05:23:12;;;;;;;9.43;7.80;;;23.50;58.70;;;;;;5098313;28;20032;-77
2021/07/21 05:25:39;;;;;;;12.93;7.68;;;23.60;57.70;;;;;;5095964;28;20038;-77
2021/07/21 05:28:08;;;;;;;13.00;8.57;;;23.70;56.80;;;;;;5096719;28;20028;-76
2021/07/21 05:30:35;;;;;;;13.57;8.15;;;23.70;56.50;;;;;;5079331;28;20528;-76
2021/07/21 05:33:02;;;;;;;12.23;8.18;;;23.90;56.60;;;;;;5097028;28;20028;-77
2021/07/21 05:35:28;;;;;;;10.48;7.80;;;23.80;56.60;;;;;;5096773;28;20032;-76
2021/07/21 05:37:54;;;;;;;11.90;7.50;;;24.00;56.80;;;;;;5095882;28;20028;-75
2021/07/21 05:40:21;;;;;;;13.93;7.93;;;24.70;55.20;;;;;;5096061;28;20028;-76
2021/07/21 05:42:46;;;;;;;7.97;6.55;;;25.40;53.80;;;;;;5096905;28;20028;-76
2021/07/21 05:45:12;;;;;;;11.95;7.40;;;25.90;52.50;;;;;;5096063;28;20065;-76
2021/07/21 05:47:38;;;;;;;10.85;7.18;;;26.40;51.40;;;;;;5095273;28;20024;-77
2021/07/21 05:50:06;;;;;;;10.20;6.18;;;26.80;50.60;;;;;;5094591;28;20024;-77
2021/07/21 05:52:35;;;;;;;8.65;7.07;;;27.20;49.50;;;;;;5095216;28;20030;-76
2021/07/21 05:55:01;;;;;;;9.07;6.75;;;27.40;49.20;;;;;;5094593;28;20020;-80
2021/07/21 05:57:27;;;;;;;9.20;6.70;;;27.20;48.60;;;;;;5077996;28;20473;-77
2021/07/21 05:59:53;;;;;;;11.18;6.95;;;27.40;49.30;;;;;;5095889;28;20028;-77
2021/07/21 06:02:22;;;;;;;12.13;7.18;;;27.70;48.00;;;;;;5062465;28;20041;-76
2021/07/21 06:04:48;;;;;;;9.00;6.88;;;27.60;47.40;;;;;;5090476;28;20038;-77
2021/07/21 06:07:14;;;;;;;8.32;6.60;;;27.40;48.00;;;;;;5096891;28;20103;-76
2021/07/21 06:09:39;;;;;;;9.25;6.70;;;27.10;47.50;;;;;;5080103;28;20035;-76
2021/07/21 06:12:06;;;;;;;9.00;6.90;;;26.70;48.70;;;;;;5096459;28;20035;-77
2021/07/21 06:14:32;;;;;;;10.75;7.20;;;26.90;48.90;;;;;;5078322;28;20128;-77
2021/07/21 06:16:59;;;;;;;9.23;7.13;;;26.90;48.40;;;;;;5096487;28;20128;-76
2021/07/21 06:19:25;;;;;;;9.43;6.57;;;27.30;48.90;;;;;;5094887;28;20044;-76
2021/07/21 06:21:50;;;;;;;14.00;6.72;;;27.60;48.60;;;;;;5096786;28;20032;-77
2021/07/21 06:24:17;;;;;;;9.70;7.07;;;27.80;47.80;;;;;;5080123;28;20156;-76
2021/07/21 06:26:44;;;;;;;10.40;6.88;;;27.80;47.30;;;;;;5097500;28;20028;-77
2021/07/21 06:29:10;;;;;;;9.90;6.90;;;28.10;47.40;;;;;;5098835;28;20035;-77
2021/07/21 06:31:36;;;;;;;10.93;6.45;;;28.40;46.70;;;;;;5097693;28;20089;-77
2021/07/21 06:34:01;;;;;;;7.32;6.15;;;28.60;46.80;;;;;;5100847;28;20035;-77
2021/07/21 06:36:27;;;;;;;10.48;7.45;;;28.60;45.70;;;;;;5108188;28;20036;-79
2021/07/21 06:38:53;;;;;;;8.75;6.88;;;28.80;46.50;;;;;;5115890;28;20023;-77
2021/07/21 06:41:19;;;;;;;8.73;6.60;;;29.10;45.30;;;;;;5099108;28;20019;-76
2021/07/21 06:43:47;;;;;;;9.13;6.78;;;29.20;45.30;;;;;;5117159;28;20035;-76
2021/07/21 06:46:13;;;;;;;8.77;6.30;;;29.40;44.90;;;;;;5093288;28;20054;-79
2021/07/21 06:48:39;;;;;;;10.20;6.15;;;29.80;45.10;;;;;;5110819;28;20064;-80
2021/07/21 06:51:05;;;;;;;6.50;5.45;;;30.00;42.50;;;;;;5097706;28;20032;-78
2021/07/21 06:53:30;;;;;;;8.57;6.68;;;30.30;42.60;;;;;;5099896;28;20075;-82
2021/07/21 06:56:00;;;;;;;12.35;7.22;;;30.40;42.80;;;;;;5116808;28;20066;-82
2021/07/21 06:58:26;;;;;;;8.80;6.47;;;30.30;42.20;;;;;;5116221;28;20012;-78
2021/07/21 07:00:51;;;;;;;9.27;6.65;;;30.20;41.70;;;;;;5116912;28;20036;-82
2021/07/21 07:03:17;;;;;;;9.18;7.28;;;30.30;42.70;;;;;;5114236;28;20051;-78
2021/07/21 07:05:47;;;;;;;8.57;6.55;;;30.60;43.80;;;;;;5092722;28;20040;-79
2021/07/21 07:08:13;;;;;;;9.80;7.10;;;30.90;43.70;;;;;;5103563;28;20020;-79
2021/07/21 07:10:40;;;;;;;7.80;6.18;;;30.70;42.60;;;;;;5104429;28;20409;-78
2021/07/21 07:13:05;;;;;;;8.23;6.07;;;30.30;43.90;;;;;;5106463;28;20035;-77
2021/07/21 07:15:32;;;;;;;9.18;6.18;;;30.40;44.10;;;;;;5101568;28;20055;-76
2021/07/21 07:17:58;;;;;;;7.88;6.20;;;30.50;42.10;;;;;;5104653;28;20023;-77
2021/07/21 07:20:24;;;;;;;10.00;6.43;;;30.20;42.30;;;;;;5106335;28;20052;-77
2021/07/21 07:22:49;;;;;;;7.15;5.47;;;30.10;43.20;;;;;;5105677;28;20024;-79
2021/07/21 07:25:15;;;;;;;7.70;5.65;;;30.00;42.00;;;;;;5102666;28;20385;-76
2021/07/21 07:27:41;;;;;;;7.60;5.88;;;29.90;41.40;;;;;;5085621;28;20050;-76
2021/07/21 07:30:07;;;;;;;7.80;4.82;;;30.00;42.90;;;;;;5089988;28;20021;-79
2021/07/21 07:32:33;;;;;;;4.97;3.85;;;30.00;41.50;;;;;;5072908;28;20138;-73
2021/07/21 07:34:58;;;;;;;6.95;4.55;;;30.20;40.20;;;;;;5088538;28;20024;-74
2021/07/21 07:37:24;;;;;;;7.90;4.78;;;30.20;39.90;;;;;;5088244;28;20083;-76
2021/07/21 07:39:50;;;;;;;7.03;4.45;;;30.00;40.30;;;;;;5105928;28;20028;-77
2021/07/21 07:42:17;;;;;;;7.63;4.32;;;29.40;41.60;;;;;;5081160;28;20440;-80
2021/07/21 07:44:43;;;;;;;5.28;3.50;;;29.10;42.30;;;;;;5099114;28;20053;-76
2021/07/21 07:47:08;;;;;;;6.60;3.15;;;28.60;40.80;;;;;;5101008;28;20024;-75
2021/07/21 07:49:34;;;;;;;6.15;3.70;;;28.20;42.30;;;;;;5082735;28;20111;-76
2021/07/21 07:52:00;;;;;;;4.75;2.88;;;28.60;40.50;;;;;;5099803;28;20059;-76
2021/07/21 07:54:26;;;;;;;3.42;2.40;;;28.40;40.70;;;;;;5099229;28;20020;-77
2021/07/21 07:56:52;;;;;;;6.47;3.50;;;28.40;40.30;;;;;;5098084;28;20028;-78
2021/07/21 07:59:18;;;;;;;5.75;3.47;;;28.30;40.30;;;;;;5102611;28;20027;-78
2021/07/21 08:01:43;;;;;;;2.85;2.47;;;28.30;41.20;;;;;;5102579;28;20384;-75
2021/07/21 08:04:09;;;;;;;5.93;3.33;;;28.30;41.00;;;;;;5102615;28;20043;-75
2021/07/21 08:06:35;;;;;;;4.38;2.67;;;28.00;41.20;;;;;;5101763;28;20028;-76
2021/07/21 08:09:03;;;;;;;3.85;3.05;;;28.00;42.20;;;;;;5098029;28;20024;-77
2021/07/21 08:11:29;;;;;;;4.18;3.20;;;28.70;41.40;;;;;;5096493;28;20123;-77
2021/07/21 08:13:55;;;;;;;3.40;3.05;;;29.30;40.60;;;;;;5080429;28;20048;-77
2021/07/21 08:16:20;;;;;;;5.32;3.08;;;29.80;39.20;;;;;;5096749;28;20032;-77
2021/07/21 08:18:46;;;;;;;3.65;2.58;;;29.30;39.40;;;;;;5097210;28;20052;-76
2021/07/21 08:21:12;;;;;;;4.20;3.20;;;28.70;40.00;;;;;;5080957;28;20482;-77
2021/07/21 08:23:38;;;;;;;6.20;2.83;;;28.50;39.20;;;;;;5098682;28;20380;-76
2021/07/21 08:26:04;;;;;;;5.28;2.83;;;28.00;39.90;;;;;;5114709;28;20032;-77
2021/07/21 08:28:31;;;;;;;5.15;2.95;;;27.80;40.70;;;;;;5096249;28;20043;-78
2021/07/21 08:30:58;;;;;;;4.07;2.72;;;27.60;41.70;;;;;;5096182;28;20055;-79
2021/07/21 08:33:24;;;;;;;3.92;2.80;;;28.10;40.70;;;;;;5097044;28;20448;-77
2021/07/21 08:35:50;;;;;;;5.60;3.33;;;28.60;39.90;;;;;;5096945;28;20040;-77
2021/07/21 08:38:18;;;;;;;5.20;2.72;;;28.70;38.90;;;;;;5097593;28;20028;-75
2021/07/21 08:40:47;;;;;;;5.72;3.38;;;28.90;39.00;;;;;;5080383;28;20024;-75
2021/07/21 08:43:13;;;;;;;3.88;2.83;;;29.10;38.60;;;;;;5098464;28;20020;-76
2021/07/21 08:45:39;;;;;;;4.50;3.20;;;29.30;38.70;;;;;;5079362;28;20028;-75
2021/07/21 08:48:05;;;;;;;5.03;3.03;;;29.10;37.10;;;;;;5095891;28;20483;-77
2021/07/21 08:50:32;;;;;;;7.78;3.78;;;28.20;38.80;;;;;;5097904;28;20020;-77
2021/07/21 08:52:59;;;;;;;4.75;3.65;;;28.10;40.00;;;;;;5095562;28;20027;-75
2021/07/21 08:55:25;;;;;;;3.63;3.28;;;28.30;38.90;;;;;;5097113;28;20040;-77
2021/07/21 08:57:51;;;;;;;4.25;3.00;;;28.60;38.20;;;;;;5078924;28;20362;-77
2021/07/21 09:00:17;;;;;;;4.38;2.90;;;28.70;37.20;;;;;;5078308;28;20395;-78
2021/07/21 09:02:45;;;;;;;4.63;2.97;;;28.70;38.30;;;;;;5094382;28;20073;-76
2021/07/21 09:05:13;;;;;;;4.57;2.60;;;28.90;37.90;;;;;;5095537;28;20020;-76
2021/07/21 09:07:40;;;;;;;4.50;3.25;;;28.90;37.80;;;;;;5095488;28;20149;-76
2021/07/21 09:10:14;;;;;;;4.90;2.95;;;29.20;37.60;;;;;;5094601;28;20051;-76
2021/07/21 09:12:44;;;;;;;4.55;3.30;;;29.10;38.10;;;;;;5095642;28;20059;-77
2021/07/21 09:15:13;;;;;;;5.57;3.42;;;29.00;37.30;;;;;;5078035;28;20044;-78
2021/07/21 09:18:08;;;;;;;3.97;3.10;;;28.60;38.00;;;;;;5095351;28;20444;-75
2021/07/21 09:20:43;;;;;;;4.72;2.70;;;28.50;38.70;;;;;;5093485;28;20079;-76
2021/07/21 09:23:09;;;;;;;5.57;3.00;;;28.60;38.10;;;;;;5094204;28;20531;-76
2021/07/21 09:25:38;;;;;;;7.80;3.40;;;28.60;38.60;;;;;;5093737;28;20056;-77
2021/07/21 09:28:09;;;;;;;3.78;2.97;;;29.10;38.00;;;;;;5093822;28;20111;-77
2021/07/21 09:30:41;;;;;;;5.22;4.00;;;29.10;38.50;;;;;;5078093;28;20387;-76
2021/07/21 09:33:13;;;;;;;3.88;3.10;;;28.70;38.40;;;;;;5094878;28;20047;-76
2021/07/21 09:35:41;;;;;;;3.97;3.05;;;27.70;38.40;;;;;;5094712;28;20020;-76
2021/07/21 09:38:12;;;;;;;4.45;3.08;;;27.40;40.10;;;;;;5095270;28;20016;-76
2021/07/21 09:40:50;;;;;;;4.95;3.20;;;27.40;40.50;;;;;;5095501;28;20043;-77
2021/07/21 09:43:19;;;;;;;5.22;3.67;;;27.70;40.80;;;;;;5095205;28;20562;-76
2021/07/21 09:45:47;;;;;;;5.50;3.80;;;28.50;40.00;;;;;;5093671;28;20027;-76
2021/07/21 09:48:14;;;;;;;4.93;3.55;;;29.30;37.80;;;;;;5093715;28;20020;-75
2021/07/21 09:50:42;;;;;;;4.07;3.67;;;29.10;38.00;;;;;;5094479;28;20121;-76
2021/07/21 09:53:12;;;;;;;4.57;3.92;;;29.10;37.80;;;;;;5094037;28;20027;-76
2021/07/21 09:55:43;;;;;;;4.32;3.25;;;29.20;38.40;;;;;;5094602;28;20024;-77
2021/07/21 09:58:13;;;;;;;5.07;3.50;;;28.90;37.80;;;;;;5094876;28;20112;-76
2021/07/21 10:00:40;;;;;;;4.75;3.45;;;28.30;39.60;;;;;;5093461;28;20055;-76
2021/07/21 10:03:17;;;;;;;4.35;3.38;;;28.60;39.50;;;;;;5077072;28;20028;-75
2021/07/21 10:06:01;;;;;;;4.43;3.70;;;28.50;39.10;;;;;;5094575;28;20043;-75
2021/07/21 10:08:43;;;;;;;5.32;3.60;;;28.60;38.30;;;;;;5094495;28;20044;-76
2021/07/21 10:11:33;;;;;;;5.38;3.85;;;28.70;38.10;;;;;;5094891;28;20047;-76
2021/07/21 10:14:02;;;;;;;4.72;3.47;;;28.50;38.00;;;;;;5094522;28;20024;-76
2021/07/21 10:16:52;;;;;;;3.83;3.33;;;28.80;38.30;;;;;;5094062;28;20471;-75
2021/07/21 10:19:25;;;;;;;4.07;3.17;;;29.00;38.10;;;;;;5096174;28;20051;-76
2021/07/21 10:22:00;;;;;;;3.33;2.88;;;29.30;37.60;;;;;;5093896;28;20028;-77
2021/07/21 10:24:29;;;;;;;5.13;3.67;;;29.80;38.80;;;;;;5095125;28;20032;-78
2021/07/21 10:26:56;;;;;;;3.58;3.00;;;30.10;37.40;;;;;;5094210;28;20032;-75
2021/07/21 10:29:23;;;;;;;6.82;3.25;;;29.90;38.00;;;;;;5094545;28;20043;-73
2021/07/21 10:31:49;;;;;;;4.25;3.33;;;30.00;37.00;;;;;;5094073;28;20387;-77
2021/07/21 10:34:16;;;;;;;4.07;3.53;;;29.60;37.00;;;;;;5093067;28;20543;-76
2021/07/21 10:36:42;;;;;;;4.53;3.47;;;29.00;37.50;;;;;;5093755;28;20028;-77
2021/07/21 10:39:17;;;;;;;5.38;3.45;;;29.00;38.00;;;;;;5076195;28;20028;-79
2021/07/21 10:41:46;;;;;;;4.93;3.97;;;29.20;37.90;;;;;;5093460;28;20020;-78
2021/07/21 10:44:14;;;;;;;5.03;3.42;;;28.50;39.00;;;;;;5076186;28;20028;-77
2021/07/21 10:46:50;;;;;;;5.32;3.47;;;28.30;39.20;;;;;;5092604;28;20490;-81
2021/07/21 10:49:33;;;;;;;4.47;4.07;;;28.30;40.10;;;;;;5093732;28;20118;-77
2021/07/21 10:55:05;;;;;;;4.65;3.03;;;29.20;40.20;;;;;;5094932;28;20035;-75
2021/07/21 11:00:23;;;;;;;3.78;3.33;;;30.40;38.00;;;;;;5094983;28;20066;-76
2021/07/21 11:02:51;;;;;;;4.85;3.78;;;29.90;38.10;;;;;;5094496;28;20082;-76
2021/07/21 11:05:39;;;;;;;4.70;3.92;;;29.70;38.80;;;;;;5076771;28;20416;-76
2021/07/21 11:08:07;;;;;;;3.97;3.58;;;29.80;37.60;;;;;;5095944;28;20065;-77
2021/07/21 11:10:34;;;;;;;4.70;4.05;;;30.10;38.10;;;;;;5077791;28;20060;-80
2021/07/21 11:13:02;;;;;;;5.68;3.85;;;30.10;38.00;;;;;;5093963;28;20095;-76
2021/07/21 11:15:36;;;;;;;5.90;4.20;;;30.40;36.20;;;;;;5093352;28;20035;-74
2021/07/21 11:18:23;;;;;;;3.67;3.38;;;30.30;36.10;;;;;;5097803;28;20517;-76
2021/07/21 11:21:05;;;;;;;5.00;4.13;;;30.60;36.00;;;;;;5098812;28;20526;-84
2021/07/21 11:23:52;;;;;;;5.32;4.22;;;30.30;36.70;;;;;;5098018;28;20024;-77
2021/07/21 11:26:36;;;;;;;5.32;4.18;;;29.40;37.20;;;;;;5098731;28;20035;-77
2021/07/21 11:29:23;;;;;;;5.32;4.32;;;28.30;38.70;;;;;;5097428;28;20131;-76
2021/07/21 11:31:49;;;;;;;4.53;4.03;;;28.40;39.40;;;;;;5097562;28;20034;-76
2021/07/21 11:34:26;;;;;;;4.75;3.83;;;28.50;38.80;;;;;;5097000;28;20032;-77
2021/07/21 11:36:58;;;;;;;5.65;4.18;;;28.20;40.00;;;;;;5097183;28;20103;-77
2021/07/21 11:39:50;;;;;;;6.65;3.92;;;28.60;40.60;;;;;;5097415;28;20063;-76
2021/07/21 11:42:38;;;;;;;5.57;4.43;;;28.40;39.30;;;;;;5096473;28;20103;-76
2021/07/21 11:45:13;;;;;;;6.05;5.05;;;28.30;39.50;;;;;;5096625;28;20020;-76
2021/07/21 11:47:52;;;;;;;5.30;4.00;;;28.10;39.20;;;;;;5096742;28;20411;-76
2021/07/21 11:50:22;;;;;;;5.53;3.72;;;28.50;40.40;;;;;;5097135;28;20063;-77
2021/07/21 11:53:06;;;;;;;5.60;5.00;;;29.40;40.60;;;;;;5096776;28;20456;-82
2021/07/21 11:55:37;;;;;;;7.47;4.03;;;29.90;38.10;;;;;;5097341;28;20106;-76
2021/07/21 11:58:14;;;;;;;6.28;4.03;;;30.30;38.90;;;;;;5096478;28;20016;-76
2021/07/21 12:00:40;;;;;;;5.28;4.15;;;30.80;38.60;;;;;;5098972;28;20036;-78
2021/07/21 12:03:06;;;;;;;6.80;4.80;;;30.80;37.50;;;;;;5081035;28;20028;-78
2021/07/21 12:05:34;;;;;;;5.25;4.75;;;30.70;38.20;;;;;;5095849;28;20020;-77
2021/07/21 12:08:04;;;;;;;6.03;4.38;;;30.50;37.10;;;;;;5079761;28;20039;-77
2021/07/21 12:10:31;;;;;;;5.53;4.80;;;30.00;37.40;;;;;;5099224;28;20024;-78
2021/07/21 12:13:09;;;;;;;7.55;5.00;;;29.80;38.10;;;;;;5096598;28;20031;-76
2021/07/21 12:15:35;;;;;;;6.40;5.57;;;29.80;39.20;;;;;;5096025;28;20032;-76
2021/07/21 12:18:09;;;;;;;6.72;5.90;;;30.00;37.70;;;;;;5097175;28;20032;-76
2021/07/21 12:20:35;;;;;;;7.32;5.90;;;29.50;39.10;;;;;;5095870;28;20051;-75
2021/07/21 12:23:00;;;;;;;10.40;6.00;;;28.90;39.00;;;;;;5094831;28;20375;-79
2021/07/21 12:25:31;;;;;;;7.60;6.35;;;28.20;39.80;;;;;;5078444;28;20054;-76
2021/07/21 12:27:58;;;;;;;6.15;5.53;;;28.00;40.10;;;;;;5094294;28;20020;-76
2021/07/21 12:30:25;;;;;;;9.15;6.38;;;27.80;41.10;;;;;;5095956;28;20020;-77
2021/07/21 12:32:53;;;;;;;8.60;6.85;;;28.10;40.90;;;;;;5096018;28;20020;-79
2021/07/21 12:35:24;;;;;;;8.40;6.60;;;28.50;40.40;;;;;;5094534;28;20085;-76
2021/07/21 12:37:52;;;;;;;8.48;6.63;;;28.70;39.00;;;;;;5095933;28;20024;-79
2021/07/21 12:40:20;;;;;;;8.77;7.20;;;28.80;39.20;;;;;;5094729;28;20355;-75
2021/07/21 12:42:52;;;;;;;7.95;6.47;;;28.50;38.80;;;;;;5095634;28;20046;-75
2021/07/21 12:45:21;;;;;;;9.07;6.32;;;28.20;39.80;;;;;;5094783;28;20021;-75
2021/07/21 12:47:54;;;;;;;8.35;7.40;;;28.30;40.90;;;;;;5094343;28;20046;-74
2021/07/21 12:50:27;;;;;;;8.18;7.38;;;28.30;40.60;;;;;;5095017;28;20036;-75
2021/07/21 12:52:59;;;;;;;9.23;7.80;;;28.60;41.20;;;;;;5095635;28;20061;-80
2021/07/21 12:55:34;;;;;;;8.00;7.07;;;29.30;40.70;;;;;;5094493;28;20035;-75